KORL/ORL METAR and TAF weather

Enter ICAO airport designator
Station Type Date Time Source
KORL METAR 2022/12/01 00:53 UTC NOAA

KORL 010053Z 00000KT 10SM CLR 21/16 A3011 RMK AO2 SLP197 T02110161 $


Station Type Date Time Source
KORL Decoded METAR 2022/12/01 00:53 UTC NOAA

ORLANDO EXECUTIVE AIRPORT, FL, United States (KORL) 28-33N 081-20W 37M
Nov 30, 2022 - 07:53 PM EST / 2022.12.01 0053 UTC
Wind: Calm:0
Visibility: 10 mile(s):0
Sky conditions: clear
Temperature: 70.0 F (21.1 C)
Dew Point: 61.0 F (16.1 C)
Relative Humidity: 73%
Pressure (altimeter): 30.11 in. Hg (1019 hPa)
ob: KORL 010053Z 00000KT 10SM CLR 21/16 A3011 RMK AO2 SLP197 T02110161
cycle: 1

Station Type Date Time Source
KORL TAF UTC NOAA

Error!

Example: see airport list